Time;durP1;ratioP1;P1;durP2;ratioP2;P2;SDS_P1;SDS_P2;PMS_P1;PMS_P2;Temp;Humidity;BMP_temperature;BMP_pressure;BME280_temperature;BME280_humidity;BME280_pressure;Samples;Min_cycle;Max_cycle;Signal;HPM_P1;HPM_P2
2021/10/23 00:00:12;;;;;;;2.03;1.25;;;12.80;65.20;;;;;;5011256;28;20137;-77
2021/10/23 00:02:38;;;;;;;1.52;1.08;;;12.80;65.30;;;;;;5010025;28;20136;-77
2021/10/23 00:05:05;;;;;;;3.08;1.25;;;12.80;65.30;;;;;;4990295;28;20563;-77
2021/10/23 00:07:31;;;;;;;3.33;1.60;;;12.80;65.30;;;;;;4990177;28;20030;-77
2021/10/23 00:09:56;;;;;;;2.30;1.50;;;12.80;65.40;;;;;;5007862;28;20129;-77
2021/10/23 00:12:22;;;;;;;1.38;1.00;;;12.80;65.40;;;;;;5009884;28;20129;-76
2021/10/23 00:14:48;;;;;;;3.83;1.67;;;12.80;65.50;;;;;;4992326;28;20463;-77
2021/10/23 00:17:14;;;;;;;2.22;1.00;;;12.80;65.50;;;;;;4990625;28;20035;-77
2021/10/23 00:19:40;;;;;;;2.45;1.65;;;12.80;65.50;;;;;;5003425;28;20073;-77
2021/10/23 00:22:06;;;;;;;2.00;1.58;;;12.80;65.60;;;;;;5024460;28;20503;-77
2021/10/23 00:24:32;;;;;;;1.42;1.25;;;12.80;65.60;;;;;;4994213;28;20066;-76
2021/10/23 00:26:58;;;;;;;2.88;1.45;;;12.70;65.50;;;;;;4989861;28;20030;-76
2021/10/23 00:29:24;;;;;;;2.03;1.20;;;12.80;65.70;;;;;;5002273;28;20029;-76
2021/10/23 00:31:50;;;;;;;1.98;1.30;;;12.70;65.50;;;;;;5009101;28;20295;-77
2021/10/23 00:34:16;;;;;;;3.05;1.48;;;12.70;65.50;;;;;;4996467;28;20030;-76
2021/10/23 00:36:42;;;;;;;2.92;1.63;;;12.70;65.60;;;;;;4989577;28;20031;-74
2021/10/23 00:39:08;;;;;;;2.55;1.55;;;12.70;65.60;;;;;;5003211;28;20088;-75
2021/10/23 00:41:34;;;;;;;2.10;1.38;;;12.70;65.70;;;;;;5008587;28;20088;-76
2021/10/23 00:44:00;;;;;;;2.85;1.10;;;12.70;65.70;;;;;;4999656;28;20452;-75
2021/10/23 00:46:26;;;;;;;3.00;1.38;;;12.70;65.70;;;;;;4992316;28;20125;-75
2021/10/23 00:48:52;;;;;;;1.35;1.00;;;12.70;65.80;;;;;;5010801;28;20050;-76
2021/10/23 00:51:20;;;;;;;1.80;1.42;;;12.70;65.80;;;;;;5012280;28;20038;-75
2021/10/23 00:53:46;;;;;;;1.52;1.15;;;12.60;65.70;;;;;;5003270;28;20031;-75
2021/10/23 00:56:15;;;;;;;3.92;1.13;;;12.60;65.70;;;;;;4993558;28;20030;-76
2021/10/23 00:58:41;;;;;;;2.40;1.17;;;12.70;65.90;;;;;;5000940;28;20026;-76
2021/10/23 01:01:07;;;;;;;1.70;1.20;;;12.70;66.00;;;;;;5014983;28;20044;-76
2021/10/23 01:03:33;;;;;;;1.27;1.10;;;12.60;65.80;;;;;;5005731;28;20129;-77
2021/10/23 01:05:59;;;;;;;3.05;1.20;;;12.60;65.80;;;;;;4994677;28;20205;-77
2021/10/23 01:08:25;;;;;;;2.92;1.35;;;12.60;65.80;;;;;;4994660;28;20129;-76
2021/10/23 01:10:52;;;;;;;4.13;1.05;;;12.60;65.90;;;;;;5013599;28;20097;-75
2021/10/23 01:13:18;;;;;;;2.00;1.27;;;12.60;65.90;;;;;;5009766;28;20030;-76
2021/10/23 01:15:44;;;;;;;5.10;1.95;;;12.60;65.90;;;;;;4996366;28;20037;-75
2021/10/23 01:18:10;;;;;;;2.75;1.17;;;12.60;65.90;;;;;;4991633;28;20449;-75
2021/10/23 01:20:36;;;;;;;2.40;1.08;;;12.60;65.90;;;;;;5009205;28;20091;-75
2021/10/23 01:23:03;;;;;;;2.30;1.15;;;12.60;65.90;;;;;;5006949;28;20034;-75
2021/10/23 01:25:31;;;;;;;2.17;1.45;;;12.60;66.00;;;;;;4991289;28;20381;-75
2021/10/23 01:28:00;;;;;;;1.48;1.00;;;12.60;66.00;;;;;;4991161;28;20035;-76
2021/10/23 01:30:27;;;;;;;2.92;1.38;;;12.50;65.80;;;;;;4989291;28;20080;-75
2021/10/23 01:32:54;;;;;;;1.25;0.95;;;12.50;65.90;;;;;;4995137;28;20030;-75
2021/10/23 01:35:24;;;;;;;2.03;1.27;;;12.60;66.10;;;;;;5000873;28;20025;-76
2021/10/23 01:37:50;;;;;;;1.98;1.30;;;12.50;65.90;;;;;;4992779;28;20493;-75
2021/10/23 01:40:19;;;;;;;1.80;1.20;;;12.50;65.90;;;;;;5011137;28;20499;-76
2021/10/23 01:42:45;;;;;;;1.00;0.90;;;12.50;66.00;;;;;;5027207;28;20040;-76
2021/10/23 01:45:12;;;;;;;4.72;1.30;;;12.50;66.00;;;;;;5012774;28;20121;-75
2021/10/23 01:47:39;;;;;;;1.80;1.00;;;12.50;66.00;;;;;;5010785;28;20038;-75
2021/10/23 01:50:11;;;;;;;2.60;1.10;;;12.50;66.10;;;;;;5016814;28;20037;-76
2021/10/23 01:52:39;;;;;;;3.43;1.80;;;12.50;66.30;;;;;;5008792;28;20027;-75
2021/10/23 01:55:05;;;;;;;2.53;1.00;;;12.50;66.10;;;;;;4997892;28;20054;-75
2021/10/23 01:57:31;;;;;;;1.33;1.00;;;12.50;66.20;;;;;;5009728;28;20104;-75
2021/10/23 01:59:57;;;;;;;1.48;1.17;;;12.50;66.20;;;;;;5012166;28;20046;-76
2021/10/23 02:02:23;;;;;;;2.20;0.95;;;12.50;66.20;;;;;;5015475;28;20030;-76
2021/10/23 02:04:49;;;;;;;1.75;1.00;;;12.50;66.20;;;;;;5017250;28;20087;-76
2021/10/23 02:07:15;;;;;;;1.40;0.80;;;12.50;66.20;;;;;;5012559;28;20026;-77
2021/10/23 02:09:41;;;;;;;2.13;1.05;;;12.50;66.20;;;;;;5013723;28;20038;-77
2021/10/23 02:12:07;;;;;;;1.25;0.90;;;12.40;66.00;;;;;;5015048;28;20036;-77
2021/10/23 02:14:33;;;;;;;1.05;0.93;;;12.50;66.30;;;;;;5017109;28;20062;-77
2021/10/23 02:16:59;;;;;;;2.55;1.00;;;12.50;66.30;;;;;;5008354;28;20081;-79
2021/10/23 02:19:25;;;;;;;1.63;1.25;;;12.40;66.20;;;;;;4999117;28;20038;-77
2021/10/23 02:21:51;;;;;;;2.17;1.20;;;12.40;66.20;;;;;;4997850;28;20101;-77
2021/10/23 02:24:17;;;;;;;1.88;0.80;;;12.40;66.20;;;;;;4998230;28;20034;-77
2021/10/23 02:26:43;;;;;;;2.00;1.80;;;12.40;66.20;;;;;;5012839;28;20026;-77
2021/10/23 02:29:09;;;;;;;2.40;1.13;;;12.40;66.20;;;;;;4996497;28;20030;-77
2021/10/23 02:31:35;;;;;;;3.38;1.10;;;12.40;66.20;;;;;;4995508;28;20101;-77
2021/10/23 02:34:01;;;;;;;1.98;0.90;;;12.40;66.20;;;;;;5000102;28;20045;-77
2021/10/23 02:36:27;;;;;;;1.88;1.00;;;12.40;66.20;;;;;;4998639;28;20034;-75
2021/10/23 02:38:53;;;;;;;1.40;1.05;;;12.40;66.30;;;;;;5003870;28;20066;-76
2021/10/23 02:41:22;;;;;;;2.83;1.58;;;12.40;66.30;;;;;;5003062;28;20046;-76
2021/10/23 02:43:48;;;;;;;1.77;1.00;;;12.40;66.40;;;;;;5003947;28;20041;-76
2021/10/23 02:46:14;;;;;;;1.40;0.90;;;12.30;66.20;;;;;;5003914;28;20034;-76
2021/10/23 02:48:41;;;;;;;3.17;1.02;;;12.30;66.20;;;;;;5002706;28;20046;-76
2021/10/23 02:51:07;;;;;;;2.35;0.93;;;12.40;66.40;;;;;;5005002;28;20054;-76
2021/10/23 02:53:33;;;;;;;2.75;1.10;;;12.30;66.30;;;;;;5003533;28;20398;-76
2021/10/23 02:55:59;;;;;;;2.78;1.00;;;12.30;66.30;;;;;;5003264;28;20550;-76
2021/10/23 02:58:26;;;;;;;1.77;0.93;;;12.40;66.50;;;;;;5004340;28;20038;-76
2021/10/23 03:00:52;;;;;;;3.53;1.17;;;12.30;66.30;;;;;;4999839;28;20601;-76
2021/10/23 03:03:19;;;;;;;1.58;0.90;;;12.30;66.30;;;;;;4995513;28;20023;-76
2021/10/23 03:05:46;;;;;;;2.40;1.00;;;12.30;66.40;;;;;;4995097;28;20394;-75
2021/10/23 03:08:14;;;;;;;1.30;1.20;;;12.30;66.40;;;;;;5010628;28;20041;-76
2021/10/23 03:10:40;;;;;;;2.58;0.80;;;12.30;66.40;;;;;;4980808;28;20504;-76
2021/10/23 03:13:06;;;;;;;1.67;1.27;;;12.30;66.40;;;;;;4999184;28;20100;-75
2021/10/23 03:15:31;;;;;;;2.00;0.90;;;12.30;66.40;;;;;;5003244;28;20026;-75
2021/10/23 03:17:57;;;;;;;0.93;0.80;;;12.30;66.50;;;;;;5009720;28;20023;-76
2021/10/23 03:20:23;;;;;;;1.02;0.70;;;12.30;66.50;;;;;;5013318;28;20367;-76
2021/10/23 03:22:49;;;;;;;1.58;0.80;;;12.30;66.50;;;;;;5016119;28;20033;-76
2021/10/23 03:25:15;;;;;;;2.10;0.98;;;12.30;66.50;;;;;;5017368;28;20045;-76
2021/10/23 03:27:41;;;;;;;1.10;0.80;;;12.20;66.90;;;;;;5017434;28;20034;-76
2021/10/23 03:30:08;;;;;;;2.53;0.90;;;12.20;66.40;;;;;;5017329;28;20057;-76
2021/10/23 03:32:35;;;;;;;6.40;1.38;;;12.20;66.40;;;;;;5015444;28;20030;-75
2021/10/23 03:35:02;;;;;;;3.63;1.35;;;12.20;66.50;;;;;;5017014;28;20398;-76
2021/10/23 03:37:32;;;;;;;0.95;0.70;;;12.20;66.50;;;;;;5017441;28;20031;-76
2021/10/23 03:40:00;;;;;;;3.70;1.20;;;12.20;66.50;;;;;;5017300;28;20118;-77
2021/10/23 03:42:26;;;;;;;1.65;0.70;;;12.20;66.60;;;;;;5017556;28;20082;-76
2021/10/23 03:44:53;;;;;;;3.05;0.93;;;12.20;66.60;;;;;;5013649;28;20039;-75
2021/10/23 03:47:19;;;;;;;1.10;1.00;;;12.20;66.60;;;;;;5014262;28;20039;-75
2021/10/23 03:49:46;;;;;;;2.45;1.48;;;12.20;66.60;;;;;;5016026;28;20038;-75
2021/10/23 03:52:12;;;;;;;4.15;1.02;;;12.20;66.60;;;;;;5017058;28;20042;-76
2021/10/23 03:54:39;;;;;;;0.90;0.80;;;12.20;66.60;;;;;;5016502;28;20268;-76
2021/10/23 03:57:05;;;;;;;1.88;1.10;;;12.20;66.60;;;;;;5017289;28;20034;-75
2021/10/23 03:59:31;;;;;;;2.60;0.90;;;12.20;66.60;;;;;;5017915;28;20038;-75
2021/10/23 04:01:58;;;;;;;1.42;0.80;;;12.20;66.60;;;;;;5017730;28;20022;-76
2021/10/23 04:04:24;;;;;;;1.48;0.70;;;12.20;66.60;;;;;;5033583;28;20039;-76
2021/10/23 04:06:51;;;;;;;0.98;0.88;;;12.20;66.70;;;;;;5011807;28;20034;-75
2021/10/23 04:09:18;;;;;;;1.60;0.95;;;12.10;66.50;;;;;;5014907;28;20050;-76
2021/10/23 04:11:45;;;;;;;2.53;0.68;;;12.10;66.50;;;;;;5016272;28;20029;-76
2021/10/23 04:14:11;;;;;;;1.33;0.70;;;12.10;66.50;;;;;;5017018;28;20026;-76
2021/10/23 04:16:37;;;;;;;1.75;0.80;;;12.10;66.50;;;;;;5016976;28;20025;-76
2021/10/23 04:19:03;;;;;;;1.20;0.80;;;12.10;66.60;;;;;;5014651;28;20040;-76
2021/10/23 04:21:29;;;;;;;3.05;1.45;;;12.10;66.50;;;;;;5032381;28;20041;-75
2021/10/23 04:23:57;;;;;;;2.60;1.33;;;12.10;66.50;;;;;;5030143;28;20034;-76
2021/10/23 04:26:23;;;;;;;1.77;0.80;;;12.10;66.60;;;;;;5026294;28;20029;-76
2021/10/23 04:28:49;;;;;;;2.22;0.90;;;12.10;66.60;;;;;;5037272;28;20033;-76
2021/10/23 04:31:15;;;;;;;2.13;0.95;;;12.00;66.40;;;;;;5015229;28;20034;-75
2021/10/23 04:33:41;;;;;;;4.03;1.02;;;12.00;66.50;;;;;;5012392;28;20041;-75
2021/10/23 04:36:07;;;;;;;2.13;0.90;;;12.00;66.40;;;;;;4997481;28;20066;-76
2021/10/23 04:38:33;;;;;;;2.40;1.00;;;12.10;66.60;;;;;;4998307;28;20030;-76
2021/10/23 04:40:59;;;;;;;3.28;1.00;;;12.00;66.50;;;;;;4996990;28;20039;-77
2021/10/23 04:43:25;;;;;;;2.00;1.27;;;12.10;66.70;;;;;;4996712;28;20038;-77
2021/10/23 04:45:51;;;;;;;1.83;0.98;;;12.00;66.50;;;;;;4992257;28;20040;-76
2021/10/23 04:48:17;;;;;;;1.27;1.15;;;12.10;66.70;;;;;;5005019;28;20058;-76
2021/10/23 04:50:43;;;;;;;1.00;0.90;;;12.10;66.70;;;;;;4993763;28;20037;-75
2021/10/23 04:53:09;;;;;;;2.75;1.05;;;12.10;66.70;;;;;;4992918;28;20046;-76
2021/10/23 04:55:35;;;;;;;2.40;1.23;;;12.00;66.60;;;;;;4993449;28;20050;-76
2021/10/23 04:58:01;;;;;;;1.02;0.70;;;12.00;66.60;;;;;;4999165;28;20029;-76
2021/10/23 05:00:27;;;;;;;3.53;0.70;;;12.00;66.60;;;;;;5008032;28;20058;-76
2021/10/23 05:02:53;;;;;;;1.33;0.90;;;12.10;66.70;;;;;;5008930;28;20034;-76
2021/10/23 05:05:20;;;;;;;1.95;0.85;;;12.10;66.70;;;;;;5004047;28;20080;-76
2021/10/23 05:07:46;;;;;;;1.83;0.75;;;12.00;66.60;;;;;;5013362;28;20030;-76
2021/10/23 05:10:13;;;;;;;1.48;0.90;;;12.10;66.70;;;;;;5031786;28;20026;-76
2021/10/23 05:12:40;;;;;;;0.90;0.90;;;12.10;66.80;;;;;;5024037;28;20030;-75
2021/10/23 05:15:07;;;;;;;1.60;0.70;;;12.10;66.70;;;;;;5011714;28;20030;-76
2021/10/23 05:17:32;;;;;;;1.48;1.08;;;12.10;66.80;;;;;;5006228;28;20077;-75
2021/10/23 05:19:59;;;;;;;2.67;0.85;;;12.10;66.80;;;;;;5010507;28;20034;-75
2021/10/23 05:22:24;;;;;;;1.70;0.93;;;12.10;66.80;;;;;;5010868;28;20041;-76
2021/10/23 05:24:50;;;;;;;2.25;1.10;;;12.10;66.70;;;;;;5011107;28;20034;-75
2021/10/23 05:27:16;;;;;;;1.92;0.80;;;12.10;66.80;;;;;;5002704;28;20184;-76
2021/10/23 05:29:43;;;;;;;4.72;0.82;;;12.10;66.70;;;;;;5039634;28;20029;-75
2021/10/23 05:32:09;;;;;;;1.73;1.10;;;12.10;66.70;;;;;;5018537;28;20077;-76
2021/10/23 05:34:41;;;;;;;1.85;1.15;;;12.10;66.70;;;;;;5003608;28;20042;-78
2021/10/23 05:37:08;;;;;;;1.92;0.80;;;12.10;66.70;;;;;;5008504;28;20034;-77
2021/10/23 05:39:38;;;;;;;1.70;0.90;;;12.10;66.70;;;;;;5006499;28;20093;-77
2021/10/23 05:42:04;;;;;;;2.13;0.88;;;12.10;66.70;;;;;;5009404;28;20030;-76
2021/10/23 05:44:30;;;;;;;1.48;0.80;;;12.10;66.70;;;;;;5009761;28;20033;-77
2021/10/23 05:46:56;;;;;;;1.65;0.73;;;12.10;66.70;;;;;;5011053;28;20057;-75
2021/10/23 05:49:23;;;;;;;0.82;0.60;;;12.10;66.70;;;;;;5028049;28;20056;-75
2021/10/23 05:51:50;;;;;;;1.98;1.00;;;12.10;66.70;;;;;;5030324;28;20040;-77
2021/10/23 05:54:16;;;;;;;1.70;1.08;;;12.10;66.70;;;;;;5030873;28;20054;-77
2021/10/23 05:56:42;;;;;;;2.08;0.82;;;12.00;66.50;;;;;;5028106;28;20155;-76
2021/10/23 05:59:12;;;;;;;1.45;0.80;;;12.10;66.70;;;;;;5044941;28;20022;-75
2021/10/23 06:01:39;;;;;;;1.75;0.60;;;12.10;66.70;;;;;;5027313;28;20104;-76
2021/10/23 06:04:05;;;;;;;1.42;0.80;;;12.10;66.70;;;;;;5028785;28;20021;-75
2021/10/23 06:06:32;;;;;;;2.05;1.02;;;12.10;66.70;;;;;;5025369;28;20178;-76
2021/10/23 06:08:58;;;;;;;0.82;0.60;;;12.10;66.70;;;;;;5024293;28;20595;-76
2021/10/23 06:11:24;;;;;;;1.63;0.63;;;12.10;67.20;;;;;;5026919;28;20034;-77
2021/10/23 06:13:52;;;;;;;2.35;1.00;;;12.10;66.70;;;;;;5010751;28;20018;-77
2021/10/23 06:16:18;;;;;;;1.60;0.80;;;12.20;66.80;;;;;;4984969;28;20254;-76
2021/10/23 06:18:44;;;;;;;1.92;1.20;;;12.10;66.60;;;;;;5030582;28;20089;-76
2021/10/23 06:21:10;;;;;;;2.05;1.33;;;12.10;66.60;;;;;;5009288;28;20038;-78
2021/10/23 06:23:36;;;;;;;1.23;0.75;;;12.10;66.60;;;;;;5021698;28;20038;-77
2021/10/23 06:26:02;;;;;;;1.00;0.65;;;12.10;66.60;;;;;;5028166;28;20033;-75
2021/10/23 06:28:28;;;;;;;2.53;0.90;;;12.20;66.70;;;;;;5028270;28;20036;-77
2021/10/23 06:30:54;;;;;;;2.25;0.60;;;12.10;67.10;;;;;;5029158;28;20033;-75
2021/10/23 06:33:20;;;;;;;2.30;1.23;;;12.10;66.50;;;;;;5023337;28;20057;-75
2021/10/23 06:35:46;;;;;;;1.00;0.60;;;12.10;66.50;;;;;;5028298;28;20096;-75
2021/10/23 06:38:13;;;;;;;2.03;0.77;;;12.10;66.50;;;;;;5023995;28;20037;-75
2021/10/23 06:40:39;;;;;;;3.50;0.90;;;12.10;66.50;;;;;;5013831;28;20045;-74
2021/10/23 06:43:05;;;;;;;1.13;0.55;;;12.10;66.50;;;;;;5009487;28;20034;-75
2021/10/23 06:45:32;;;;;;;2.17;0.77;;;12.10;66.60;;;;;;5007210;28;20441;-76
2021/10/23 06:47:59;;;;;;;3.75;0.80;;;12.10;66.50;;;;;;4991149;28;20042;-76
2021/10/23 06:50:25;;;;;;;1.52;0.70;;;12.10;66.50;;;;;;4990021;28;20393;-77
2021/10/23 06:52:51;;;;;;;2.85;0.80;;;12.10;66.50;;;;;;4993101;28;20038;-76
2021/10/23 06:55:17;;;;;;;1.52;0.70;;;12.10;66.50;;;;;;4997248;28;20136;-76
2021/10/23 06:57:46;;;;;;;0.90;0.63;;;12.10;66.50;;;;;;4991831;28;20190;-76
2021/10/23 07:00:13;;;;;;;1.83;0.52;;;12.20;66.70;;;;;;5023944;28;20037;-76
2021/10/23 07:02:46;;;;;;;0.82;0.45;;;12.10;66.40;;;;;;5007477;28;20471;-77
2021/10/23 07:05:14;;;;;;;1.50;0.57;;;12.20;66.60;;;;;;4995056;28;20117;-78
2021/10/23 07:07:40;;;;;;;0.95;0.52;;;12.20;66.60;;;;;;4988940;28;20042;-78
2021/10/23 07:10:08;;;;;;;1.50;0.80;;;12.20;66.50;;;;;;4991044;28;20031;-79
2021/10/23 07:12:34;;;;;;;1.58;0.75;;;12.20;66.60;;;;;;4993045;28;20084;-79
2021/10/23 07:15:00;;;;;;;1.23;0.68;;;12.20;66.50;;;;;;5006892;28;20362;-78
2021/10/23 07:17:26;;;;;;;1.20;0.82;;;12.20;66.50;;;;;;4997383;28;20030;-78
2021/10/23 07:19:52;;;;;;;3.53;0.82;;;12.20;66.50;;;;;;5007272;28;20362;-80
2021/10/23 07:22:19;;;;;;;1.60;0.70;;;12.20;66.50;;;;;;5006747;28;20133;-83
2021/10/23 07:24:45;;;;;;;1.85;0.98;;;12.20;66.40;;;;;;5007173;28;20080;-83
2021/10/23 07:27:11;;;;;;;1.90;0.70;;;12.20;66.40;;;;;;5000316;28;20038;-79
2021/10/23 07:29:37;;;;;;;3.15;0.80;;;12.30;66.60;;;;;;4998749;28;20034;-77
2021/10/23 07:32:03;;;;;;;0.95;0.63;;;12.30;66.50;;;;;;4988592;28;20109;-79
2021/10/23 07:34:29;;;;;;;1.60;0.90;;;12.30;66.50;;;;;;4989173;28;20393;-79
2021/10/23 07:36:55;;;;;;;1.60;0.70;;;12.30;66.50;;;;;;4986769;28;20121;-82
2021/10/23 07:39:21;;;;;;;1.95;0.68;;;12.30;66.40;;;;;;5002110;28;20046;-80
2021/10/23 07:41:48;;;;;;;2.53;1.67;;;12.30;66.40;;;;;;5007031;28;20049;-83
2021/10/23 07:44:14;;;;;;;1.83;1.27;;;12.30;66.40;;;;;;5006984;28;20034;-78
2021/10/23 07:46:40;;;;;;;0.88;0.65;;;12.40;66.50;;;;;;4999821;28;20030;-80
2021/10/23 07:49:07;;;;;;;2.63;0.82;;;12.40;66.50;;;;;;5005923;28;20037;-79
2021/10/23 07:51:35;;;;;;;1.15;0.80;;;12.40;66.40;;;;;;5021900;28;20036;-80
2021/10/23 07:54:04;;;;;;;1.38;0.68;;;12.40;66.40;;;;;;5007236;28;20135;-81
2021/10/23 07:56:32;;;;;;;1.77;1.00;;;12.40;66.30;;;;;;5005271;28;20034;-82
2021/10/23 07:59:00;;;;;;;1.17;0.70;;;12.50;66.40;;;;;;5006910;28;20029;-81
2021/10/23 08:01:27;;;;;;;2.75;0.80;;;12.50;66.40;;;;;;5003297;28;20128;-82
2021/10/23 08:03:55;;;;;;;2.42;0.55;;;12.50;66.40;;;;;;5004421;28;20022;-82
2021/10/23 08:06:22;;;;;;;1.92;0.95;;;12.60;66.50;;;;;;4996733;28;20070;-79
2021/10/23 08:08:48;;;;;;;2.75;0.90;;;12.60;66.50;;;;;;5004365;28;20022;-77
2021/10/23 08:11:14;;;;;;;2.08;0.70;;;12.60;66.40;;;;;;4991027;28;20034;-78
2021/10/23 08:13:40;;;;;;;2.22;0.90;;;12.60;66.30;;;;;;5004003;28;20560;-79
2021/10/23 08:16:06;;;;;;;1.60;0.80;;;12.70;66.50;;;;;;5008133;28;20033;-78
2021/10/23 08:18:33;;;;;;;1.92;0.80;;;12.70;66.40;;;;;;4999833;28;20120;-79
2021/10/23 08:21:00;;;;;;;1.73;0.82;;;12.70;66.30;;;;;;5010973;28;20129;-77
2021/10/23 08:23:27;;;;;;;1.42;0.55;;;12.80;66.50;;;;;;4989405;28;20026;-78
2021/10/23 08:25:54;;;;;;;0.43;0.40;;;12.80;66.40;;;;;;5004849;28;20117;-77
2021/10/23 08:28:23;;;;;;;1.40;0.70;;;12.80;66.30;;;;;;4997475;28;20026;-80
2021/10/23 08:30:50;;;;;;;1.98;0.60;;;12.90;66.50;;;;;;4998779;28;20084;-80
2021/10/23 08:33:17;;;;;;;2.20;0.70;;;12.90;66.40;;;;;;5013606;28;20030;-78
2021/10/23 08:35:43;;;;;;;0.60;0.50;;;12.90;66.30;;;;;;5007003;28;20038;-79
2021/10/23 08:38:09;;;;;;;0.70;0.70;;;13.00;66.40;;;;;;5006563;28;20037;-79
2021/10/23 08:40:35;;;;;;;2.95;0.90;;;13.00;66.30;;;;;;5003072;28;20070;-77
2021/10/23 08:43:04;;;;;;;1.00;0.60;;;13.00;66.20;;;;;;4996387;28;20030;-78
2021/10/23 08:45:31;;;;;;;1.00;0.52;;;13.10;66.40;;;;;;4999505;28;20429;-79
2021/10/23 08:47:59;;;;;;;1.17;0.80;;;13.20;66.50;;;;;;4988271;28;20531;-77
2021/10/23 08:50:25;;;;;;;2.17;0.80;;;13.20;66.40;;;;;;4989516;28;20046;-78
2021/10/23 08:52:56;;;;;;;1.08;0.60;;;13.30;67.00;;;;;;4987835;28;20022;-79
2021/10/23 08:55:22;;;;;;;2.00;0.77;;;13.30;66.40;;;;;;4989685;28;20034;-80
2021/10/23 08:57:48;;;;;;;2.10;0.90;;;13.30;66.30;;;;;;4992744;28;20030;-77
2021/10/23 09:00:15;;;;;;;1.27;0.82;;;13.40;66.40;;;;;;5003954;28;20117;-78
2021/10/23 09:02:41;;;;;;;1.15;0.70;;;13.40;66.30;;;;;;4993962;28;20096;-75
2021/10/23 09:05:08;;;;;;;1.13;0.57;;;13.50;66.40;;;;;;5007877;28;20029;-80
2021/10/23 09:07:46;;;;;;;2.38;0.70;;;13.50;66.40;;;;;;5012873;28;20030;-78
2021/10/23 09:10:13;;;;;;;2.55;0.93;;;13.60;66.40;;;;;;5009723;28;20045;-76
2021/10/23 09:12:39;;;;;;;2.38;1.23;;;13.60;66.30;;;;;;5009129;28;20030;-79
2021/10/23 09:15:15;;;;;;;2.10;1.42;;;13.70;66.40;;;;;;5008730;28;20025;-78
2021/10/23 09:17:50;;;;;;;1.88;0.70;;;13.80;66.40;;;;;;4997475;28;20086;-77
2021/10/23 09:20:18;;;;;;;3.53;1.10;;;13.90;66.90;;;;;;5007365;28;20505;-77
2021/10/23 09:22:46;;;;;;;2.50;0.88;;;13.90;66.30;;;;;;5002341;28;20042;-78
2021/10/23 09:25:25;;;;;;;3.47;1.20;;;14.00;66.20;;;;;;4989167;28;20486;-78
2021/10/23 09:27:55;;;;;;;1.77;0.80;;;14.10;66.30;;;;;;4988743;28;20041;-77
2021/10/23 09:30:31;;;;;;;4.22;0.98;;;14.20;66.30;;;;;;5003292;28;20038;-78
2021/10/23 09:33:04;;;;;;;1.65;0.60;;;14.20;66.10;;;;;;4987766;28;20062;-78
2021/10/23 09:35:31;;;;;;;1.85;0.73;;;14.30;66.20;;;;;;4986834;28;20065;-76
2021/10/23 09:37:58;;;;;;;1.38;0.60;;;14.40;66.20;;;;;;4991406;28;20026;-75
2021/10/23 09:40:27;;;;;;;2.25;1.27;;;14.40;66.10;;;;;;4992507;28;20382;-75
2021/10/23 09:43:18;;;;;;;1.88;0.63;;;14.50;66.10;;;;;;4992917;28;20022;-78
2021/10/23 09:45:58;;;;;;;1.35;0.45;;;14.60;66.10;;;;;;4976457;28;20051;-78
2021/10/23 09:48:44;;;;;;;1.90;0.68;;;14.70;66.00;;;;;;5001403;28;20041;-79
2021/10/23 09:51:16;;;;;;;1.67;1.00;;;14.70;65.90;;;;;;5008968;28;20037;-76
2021/10/23 09:53:47;;;;;;;1.40;0.60;;;14.80;65.90;;;;;;5006025;28;20034;-76
2021/10/23 09:56:41;;;;;;;0.75;0.55;;;14.90;66.00;;;;;;5007890;28;20087;-76
2021/10/23 09:59:10;;;;;;;2.00;0.70;;;15.00;66.00;;;;;;5005581;28;20051;-77
2021/10/23 10:01:41;;;;;;;2.05;0.90;;;15.00;65.80;;;;;;5023164;28;20069;-80
2021/10/23 10:04:09;;;;;;;2.35;0.80;;;15.10;65.70;;;;;;5005125;28;20068;-77
2021/10/23 10:06:42;;;;;;;3.58;1.33;;;15.10;65.50;;;;;;4988204;28;20129;-77
2021/10/23 10:09:21;;;;;;;1.17;0.60;;;15.20;65.50;;;;;;5015944;28;20485;-76
2021/10/23 10:11:49;;;;;;;1.95;0.80;;;15.20;65.30;;;;;;5007197;28;20041;-76
2021/10/23 10:14:17;;;;;;;1.30;0.98;;;15.20;65.20;;;;;;4989810;28;20041;-76
2021/10/23 10:16:47;;;;;;;1.92;0.75;;;15.30;65.30;;;;;;4987790;28;20030;-79
2021/10/23 10:19:15;;;;;;;2.47;0.95;;;15.30;65.20;;;;;;5002161;28;20029;-76
2021/10/23 10:21:42;;;;;;;1.20;0.60;;;15.30;65.00;;;;;;5007072;28;20030;-76
2021/10/23 10:24:15;;;;;;;1.73;0.88;;;15.40;65.10;;;;;;5022020;28;20105;-76
2021/10/23 10:27:11;;;;;;;3.13;1.25;;;15.40;64.90;;;;;;5006983;28;20068;-76
2021/10/23 10:29:48;;;;;;;1.75;0.80;;;15.50;64.90;;;;;;5006316;28;20030;-76
2021/10/23 10:32:24;;;;;;;1.65;1.15;;;15.50;64.80;;;;;;5006248;28;20036;-78
2021/10/23 10:42:50;;;;;;;1.67;0.90;;;15.80;65.00;;;;;;4991019;28;20064;-77
2021/10/23 10:45:35;;;;;;;4.20;1.90;;;15.90;65.30;;;;;;5006602;28;20026;-77
2021/10/23 10:48:07;;;;;;;2.08;1.15;;;15.90;65.30;;;;;;4992973;28;20045;-78
2021/10/23 10:50:42;;;;;;;3.15;1.20;;;16.00;65.30;;;;;;5007356;28;20026;-78
2021/10/23 10:53:20;;;;;;;1.67;1.17;;;16.10;65.30;;;;;;5006465;28;20030;-78
2021/10/23 10:55:58;;;;;;;2.03;0.88;;;16.30;65.50;;;;;;5022183;28;20061;-77
2021/10/23 10:58:40;;;;;;;1.92;1.40;;;16.30;65.30;;;;;;5006522;28;20029;-77
2021/10/23 11:01:12;;;;;;;2.50;1.23;;;16.50;65.20;;;;;;5005352;28;20057;-76
2021/10/23 11:03:46;;;;;;;2.30;1.17;;;16.60;65.10;;;;;;5009354;28;20171;-76
2021/10/23 11:06:31;;;;;;;2.42;1.63;;;16.70;65.10;;;;;;4996502;28;20468;-77
2021/10/23 11:09:11;;;;;;;2.67;1.10;;;16.70;64.60;;;;;;5005739;28;20057;-77
2021/10/23 11:11:47;;;;;;;2.83;1.30;;;16.70;64.30;;;;;;5021021;28;20264;-77
2021/10/23 11:14:28;;;;;;;1.48;1.20;;;16.80;64.20;;;;;;4986584;28;20437;-78
2021/10/23 11:16:55;;;;;;;2.47;1.10;;;16.80;63.90;;;;;;4995635;28;20032;-78
2021/10/23 11:19:21;;;;;;;5.63;1.63;;;16.90;64.00;;;;;;5001648;28;20518;-78
2021/10/23 11:21:59;;;;;;;3.30;1.48;;;16.90;64.30;;;;;;5006396;28;20497;-79
2021/10/23 11:24:28;;;;;;;4.50;4.10;;;16.90;63.60;;;;;;5004583;28;20056;-78
2021/10/23 11:26:55;;;;;;;23.98;21.55;;;17.00;63.70;;;;;;5006241;28;20060;-78
2021/10/23 11:29:28;;;;;;;19.15;17.35;;;16.90;63.30;;;;;;5004628;28;20038;-78
2021/10/23 11:31:56;;;;;;;15.07;13.48;;;17.00;63.10;;;;;;5000604;28;20022;-77
2021/10/23 11:34:27;;;;;;;12.10;10.77;;;17.10;63.10;;;;;;4992737;28;20136;-78
2021/10/23 11:37:02;;;;;;;10.43;9.30;;;17.10;63.00;;;;;;4987031;28;20030;-77
2021/10/23 11:39:35;;;;;;;8.65;7.47;;;17.10;62.60;;;;;;5000866;28;20044;-76
2021/10/23 11:42:21;;;;;;;8.82;6.93;;;17.10;62.60;;;;;;5005745;28;20049;-79
2021/10/23 11:44:50;;;;;;;8.18;7.38;;;17.10;62.40;;;;;;5010118;28;20113;-79
2021/10/23 11:47:26;;;;;;;7.97;7.18;;;17.10;62.40;;;;;;4997409;28;20395;-79
2021/10/23 11:49:59;;;;;;;7.78;6.53;;;17.20;62.60;;;;;;5009280;28;20125;-79
2021/10/23 11:52:29;;;;;;;6.45;5.78;;;17.10;62.30;;;;;;5009200;28;20034;-78
2021/10/23 11:54:57;;;;;;;7.10;5.25;;;17.20;62.30;;;;;;5009427;28;20038;-79
2021/10/23 11:57:33;;;;;;;6.68;5.35;;;17.20;62.30;;;;;;5008780;28;20030;-79
2021/10/23 12:00:00;;;;;;;7.15;4.82;;;17.20;62.00;;;;;;5024864;28;20061;-79
2021/10/23 12:02:45;;;;;;;6.78;4.63;;;17.20;62.00;;;;;;5010150;28;20551;-78
2021/10/23 12:05:43;;;;;;;9.27;5.82;;;17.30;62.00;;;;;;5007953;28;20120;-80
2021/10/23 12:08:09;;;;;;;6.85;4.75;;;17.30;62.00;;;;;;4992741;28;20392;-80
2021/10/23 12:11:02;;;;;;;4.65;4.25;;;17.30;62.00;;;;;;4995723;28;20121;-78
2021/10/23 12:13:48;;;;;;;4.63;3.90;;;17.30;61.80;;;;;;5000207;28;20022;-78
2021/10/23 12:16:16;;;;;;;5.30;4.30;;;17.30;61.80;;;;;;5005331;28;20184;-76
2021/10/23 12:18:45;;;;;;;4.72;4.13;;;17.40;61.90;;;;;;5007882;28;20034;-80
2021/10/23 12:21:14;;;;;;;4.80;3.10;;;17.30;61.70;;;;;;5009285;28;20454;-82
2021/10/23 12:23:52;;;;;;;4.20;3.40;;;17.30;61.70;;;;;;5008923;28;20034;-79
2021/10/23 12:26:26;;;;;;;3.95;3.40;;;17.30;61.60;;;;;;5008991;28;20037;-78
2021/10/23 12:29:05;;;;;;;2.75;2.53;;;17.30;61.60;;;;;;5024473;28;20246;-79
2021/10/23 12:31:54;;;;;;;4.97;3.13;;;17.30;61.60;;;;;;5024806;28;20081;-74
2021/10/23 12:34:19;;;;;;;3.25;2.60;;;17.30;61.60;;;;;;5008360;28;20109;-79
2021/10/23 12:36:51;;;;;;;3.83;3.00;;;17.40;61.80;;;;;;5008581;28;20045;-80
2021/10/23 12:39:21;;;;;;;2.83;2.63;;;17.40;61.70;;;;;;4995084;28;20167;-80
2021/10/23 12:41:49;;;;;;;3.83;2.70;;;17.30;61.50;;;;;;4989269;28;20034;-79
2021/10/23 12:44:17;;;;;;;3.70;2.35;;;17.30;61.50;;;;;;4988157;28;20031;-80
2021/10/23 12:46:44;;;;;;;4.00;2.40;;;17.40;61.60;;;;;;5004299;28;20129;-81
2021/10/23 12:49:09;;;;;;;3.45;1.90;;;17.40;61.60;;;;;;4998238;28;20408;-80
2021/10/23 12:51:36;;;;;;;2.95;2.38;;;17.40;61.60;;;;;;4996910;28;20519;-81
2021/10/23 12:54:02;;;;;;;3.97;2.35;;;17.40;61.50;;;;;;5008316;28;20030;-80
2021/10/23 12:56:28;;;;;;;2.13;1.70;;;17.50;61.60;;;;;;5008814;28;20037;-78
2021/10/23 12:58:54;;;;;;;2.78;1.90;;;17.40;61.30;;;;;;4997612;28;20509;-82